METAR TAF

[Source: ADDS]
METAR
LFCR 161830Z AUTO 12014KT CAVOK 10/07 Q1022 NOSIG =
LFCR 161700Z 1618/1718 13012KT CAVOK BECMG 1712/1713 29012KT RA BKN008 OVC016 BECMG 1716/1718 NSW SCT020 LFBA 161830Z AUTO 13008KT CAVOK 13/09 Q1021 NOSIG =
LFBA 161700Z 1618/1703 15010KT CAVOK LFSL 161830Z AUTO 17009KT CAVOK 14/08 Q1020 NOSIG =
LFSL 161700Z 1618/1703 16010KT CAVOK LFLW 161800Z AUTO 11009KT 070V150 9999 ////// 11/07 Q1021 =
LFLW 161400Z 1615/1624 16010KT CAVOK
TAF
LFCR 161700Z 1618/1718 13012KT CAVOK BECMG 1712/1713 29012KT RA BKN008 OVC016 BECMG 1716/1718 NSW SCT020 =
LFBA 161700Z 1618/1703 15010KT CAVOK =
LFSL 161700Z 1618/1703 16010KT CAVOK =
LFLW 161400Z 1615/1624 16010KT CAVOK =
SR / SS: 06:52 / 17:24 UTC (LFCC 2020-02-16)